sensor_id;sensor_type;location;lat;lon;timestamp;P1;durP1;ratioP1;P2;durP2;ratioP2
73632;SDS011;61927;50.080;14.418;2023-12-14T00:01:19;24.25;;;16.05;;
73632;SDS011;61927;50.080;14.418;2023-12-14T00:03:45;27.88;;;15.93;;
73632;SDS011;61927;50.080;14.418;2023-12-14T00:06:11;22.50;;;14.52;;
73632;SDS011;61927;50.080;14.418;2023-12-14T00:08:37;22.52;;;14.55;;
73632;SDS011;61927;50.080;14.418;2023-12-14T00:11:03;21.35;;;15.05;;
73632;SDS011;61927;50.080;14.418;2023-12-14T00:13:32;24.38;;;15.27;;
73632;SDS011;61927;50.080;14.418;2023-12-14T00:15:58;20.77;;;14.23;;
73632;SDS011;61927;50.080;14.418;2023-12-14T00:18:24;19.48;;;14.38;;
73632;SDS011;61927;50.080;14.418;2023-12-14T00:20:50;23.23;;;16.00;;
73632;SDS011;61927;50.080;14.418;2023-12-14T00:23:15;23.40;;;14.68;;
73632;SDS011;61927;50.080;14.418;2023-12-14T00:25:41;24.45;;;16.00;;
73632;SDS011;61927;50.080;14.418;2023-12-14T00:28:07;27.20;;;17.02;;
73632;SDS011;61927;50.080;14.418;2023-12-14T00:30:32;28.73;;;16.73;;
73632;SDS011;61927;50.080;14.418;2023-12-14T00:32:58;26.63;;;16.17;;
73632;SDS011;61927;50.080;14.418;2023-12-14T00:35:23;23.73;;;16.08;;
73632;SDS011;61927;50.080;14.418;2023-12-14T00:37:49;22.67;;;15.25;;
73632;SDS011;61927;50.080;14.418;2023-12-14T00:40:14;22.92;;;15.57;;
73632;SDS011;61927;50.080;14.418;2023-12-14T00:42:40;21.63;;;14.38;;
73632;SDS011;61927;50.080;14.418;2023-12-14T00:45:06;20.92;;;13.98;;
73632;SDS011;61927;50.080;14.418;2023-12-14T00:47:32;23.13;;;14.48;;
73632;SDS011;61927;50.080;14.418;2023-12-14T00:49:57;24.00;;;15.60;;
73632;SDS011;61927;50.080;14.418;2023-12-14T00:52:23;21.02;;;14.73;;
73632;SDS011;61927;50.080;14.418;2023-12-14T00:54:48;22.98;;;15.85;;
73632;SDS011;61927;50.080;14.418;2023-12-14T00:57:14;23.80;;;16.00;;
73632;SDS011;61927;50.080;14.418;2023-12-14T00:59:39;24.00;;;15.52;;
73632;SDS011;61927;50.080;14.418;2023-12-14T01:02:06;21.77;;;15.40;;
73632;SDS011;61927;50.080;14.418;2023-12-14T01:04:31;22.73;;;15.52;;
73632;SDS011;61927;50.080;14.418;2023-12-14T01:06:57;22.48;;;15.55;;
73632;SDS011;61927;50.080;14.418;2023-12-14T01:09:23;26.02;;;16.38;;
73632;SDS011;61927;50.080;14.418;2023-12-14T01:11:48;23.38;;;16.40;;
73632;SDS011;61927;50.080;14.418;2023-12-14T01:14:14;26.95;;;17.27;;
73632;SDS011;61927;50.080;14.418;2023-12-14T01:16:39;31.23;;;18.15;;
73632;SDS011;61927;50.080;14.418;2023-12-14T01:19:05;29.90;;;18.45;;
73632;SDS011;61927;50.080;14.418;2023-12-14T01:21:31;34.15;;;18.10;;
73632;SDS011;61927;50.080;14.418;2023-12-14T01:23:57;28.10;;;16.65;;
73632;SDS011;61927;50.080;14.418;2023-12-14T01:26:23;29.90;;;16.92;;
73632;SDS011;61927;50.080;14.418;2023-12-14T01:28:48;24.35;;;16.05;;
73632;SDS011;61927;50.080;14.418;2023-12-14T01:31:14;25.00;;;15.75;;
73632;SDS011;61927;50.080;14.418;2023-12-14T01:33:39;25.08;;;15.85;;
73632;SDS011;61927;50.080;14.418;2023-12-14T01:36:05;22.33;;;14.23;;
73632;SDS011;61927;50.080;14.418;2023-12-14T01:38:31;23.20;;;14.90;;
73632;SDS011;61927;50.080;14.418;2023-12-14T01:40:57;24.05;;;14.73;;
73632;SDS011;61927;50.080;14.418;2023-12-14T01:43:23;21.55;;;14.35;;
73632;SDS011;61927;50.080;14.418;2023-12-14T01:45:49;22.20;;;13.73;;
73632;SDS011;61927;50.080;14.418;2023-12-14T01:48:14;22.92;;;14.63;;
73632;SDS011;61927;50.080;14.418;2023-12-14T01:50:40;23.92;;;13.98;;
73632;SDS011;61927;50.080;14.418;2023-12-14T01:53:05;20.73;;;13.18;;
73632;SDS011;61927;50.080;14.418;2023-12-14T01:55:31;24.20;;;14.35;;
73632;SDS011;61927;50.080;14.418;2023-12-14T01:57:56;21.67;;;13.48;;
73632;SDS011;61927;50.080;14.418;2023-12-14T02:03:04;23.80;;;14.73;;
73632;SDS011;61927;50.080;14.418;2023-12-14T02:05:30;21.33;;;14.07;;
73632;SDS011;61927;50.080;14.418;2023-12-14T02:07:56;21.30;;;14.02;;
73632;SDS011;61927;50.080;14.418;2023-12-14T02:10:23;24.20;;;14.93;;
73632;SDS011;61927;50.080;14.418;2023-12-14T02:12:48;26.10;;;15.23;;
73632;SDS011;61927;50.080;14.418;2023-12-14T02:15:14;25.52;;;16.08;;
73632;SDS011;61927;50.080;14.418;2023-12-14T02:17:39;23.83;;;14.45;;
73632;SDS011;61927;50.080;14.418;2023-12-14T02:20:05;26.20;;;15.43;;
73632;SDS011;61927;50.080;14.418;2023-12-14T02:25:17;24.95;;;14.88;;
73632;SDS011;61927;50.080;14.418;2023-12-14T02:27:43;27.05;;;15.02;;
73632;SDS011;61927;50.080;14.418;2023-12-14T02:30:09;28.90;;;16.42;;
73632;SDS011;61927;50.080;14.418;2023-12-14T02:32:35;28.85;;;15.15;;
73632;SDS011;61927;50.080;14.418;2023-12-14T02:35:00;29.40;;;15.93;;
73632;SDS011;61927;50.080;14.418;2023-12-14T02:37:26;28.23;;;15.60;;
73632;SDS011;61927;50.080;14.418;2023-12-14T02:39:52;28.75;;;15.45;;
73632;SDS011;61927;50.080;14.418;2023-12-14T02:42:17;28.08;;;15.40;;
73632;SDS011;61927;50.080;14.418;2023-12-14T02:44:43;28.30;;;15.98;;
73632;SDS011;61927;50.080;14.418;2023-12-14T02:47:08;25.52;;;15.00;;
73632;SDS011;61927;50.080;14.418;2023-12-14T02:49:34;26.33;;;14.68;;
73632;SDS011;61927;50.080;14.418;2023-12-14T02:51:59;27.70;;;14.50;;
73632;SDS011;61927;50.080;14.418;2023-12-14T02:54:25;24.52;;;13.82;;
73632;SDS011;61927;50.080;14.418;2023-12-14T02:56:50;23.70;;;13.95;;
73632;SDS011;61927;50.080;14.418;2023-12-14T02:59:16;26.48;;;14.02;;
73632;SDS011;61927;50.080;14.418;2023-12-14T03:01:42;26.15;;;13.88;;
73632;SDS011;61927;50.080;14.418;2023-12-14T03:04:07;24.90;;;13.85;;
73632;SDS011;61927;50.080;14.418;2023-12-14T03:06:33;26.77;;;15.32;;
73632;SDS011;61927;50.080;14.418;2023-12-14T03:08:59;23.42;;;13.00;;
73632;SDS011;61927;50.080;14.418;2023-12-14T03:11:25;24.05;;;13.60;;
73632;SDS011;61927;50.080;14.418;2023-12-14T03:13:51;22.35;;;13.25;;
73632;SDS011;61927;50.080;14.418;2023-12-14T03:16:17;26.70;;;14.02;;
73632;SDS011;61927;50.080;14.418;2023-12-14T03:18:45;26.88;;;14.57;;
73632;SDS011;61927;50.080;14.418;2023-12-14T03:21:11;23.75;;;14.13;;
73632;SDS011;61927;50.080;14.418;2023-12-14T03:23:37;29.25;;;14.35;;
73632;SDS011;61927;50.080;14.418;2023-12-14T03:26:02;24.50;;;14.10;;
73632;SDS011;61927;50.080;14.418;2023-12-14T03:28:28;25.52;;;13.65;;
73632;SDS011;61927;50.080;14.418;2023-12-14T03:30:54;23.73;;;13.20;;
73632;SDS011;61927;50.080;14.418;2023-12-14T03:33:19;26.42;;;15.02;;
73632;SDS011;61927;50.080;14.418;2023-12-14T03:35:45;31.58;;;14.07;;
73632;SDS011;61927;50.080;14.418;2023-12-14T03:38:14;25.50;;;13.82;;
73632;SDS011;61927;50.080;14.418;2023-12-14T03:40:40;25.67;;;14.00;;
73632;SDS011;61927;50.080;14.418;2023-12-14T03:43:06;23.67;;;13.18;;
73632;SDS011;61927;50.080;14.418;2023-12-14T03:45:31;22.25;;;12.60;;
73632;SDS011;61927;50.080;14.418;2023-12-14T03:47:57;24.77;;;13.35;;
73632;SDS011;61927;50.080;14.418;2023-12-14T03:50:23;23.63;;;13.10;;
73632;SDS011;61927;50.080;14.418;2023-12-14T03:52:48;25.33;;;13.35;;
73632;SDS011;61927;50.080;14.418;2023-12-14T03:55:14;25.92;;;14.10;;
73632;SDS011;61927;50.080;14.418;2023-12-14T03:57:41;23.90;;;12.75;;
73632;SDS011;61927;50.080;14.418;2023-12-14T04:00:10;24.42;;;13.52;;
73632;SDS011;61927;50.080;14.418;2023-12-14T04:02:37;23.98;;;13.15;;
73632;SDS011;61927;50.080;14.418;2023-12-14T04:05:02;23.55;;;13.25;;
73632;SDS011;61927;50.080;14.418;2023-12-14T04:07:28;21.23;;;12.18;;
73632;SDS011;61927;50.080;14.418;2023-12-14T04:09:54;22.80;;;12.98;;
73632;SDS011;61927;50.080;14.418;2023-12-14T04:12:19;23.25;;;12.75;;
73632;SDS011;61927;50.080;14.418;2023-12-14T04:14:45;24.80;;;12.45;;
73632;SDS011;61927;50.080;14.418;2023-12-14T04:17:11;22.92;;;13.10;;
73632;SDS011;61927;50.080;14.418;2023-12-14T04:19:40;22.50;;;12.75;;
73632;SDS011;61927;50.080;14.418;2023-12-14T04:22:06;20.98;;;12.73;;
73632;SDS011;61927;50.080;14.418;2023-12-14T04:24:31;19.95;;;12.20;;
73632;SDS011;61927;50.080;14.418;2023-12-14T04:26:58;19.08;;;11.52;;
73632;SDS011;61927;50.080;14.418;2023-12-14T04:29:23;23.13;;;13.10;;
73632;SDS011;61927;50.080;14.418;2023-12-14T04:31:49;22.60;;;12.70;;
73632;SDS011;61927;50.080;14.418;2023-12-14T04:34:14;23.20;;;13.30;;
73632;SDS011;61927;50.080;14.418;2023-12-14T04:36:50;24.15;;;12.32;;
73632;SDS011;61927;50.080;14.418;2023-12-14T04:39:15;23.50;;;13.38;;
73632;SDS011;61927;50.080;14.418;2023-12-14T04:41:42;23.85;;;12.60;;
73632;SDS011;61927;50.080;14.418;2023-12-14T04:44:07;23.13;;;12.68;;
73632;SDS011;61927;50.080;14.418;2023-12-14T04:46:35;22.95;;;12.57;;
73632;SDS011;61927;50.080;14.418;2023-12-14T04:49:01;24.45;;;12.88;;
73632;SDS011;61927;50.080;14.418;2023-12-14T04:51:27;22.63;;;13.68;;
73632;SDS011;61927;50.080;14.418;2023-12-14T04:53:52;22.60;;;11.85;;
73632;SDS011;61927;50.080;14.418;2023-12-14T04:56:18;24.38;;;12.30;;
73632;SDS011;61927;50.080;14.418;2023-12-14T04:58:43;20.75;;;12.15;;
73632;SDS011;61927;50.080;14.418;2023-12-14T05:01:09;22.02;;;11.85;;
73632;SDS011;61927;50.080;14.418;2023-12-14T05:03:35;22.88;;;12.40;;
73632;SDS011;61927;50.080;14.418;2023-12-14T05:06:01;23.17;;;12.73;;
73632;SDS011;61927;50.080;14.418;2023-12-14T05:08:26;22.08;;;13.48;;
73632;SDS011;61927;50.080;14.418;2023-12-14T05:10:52;21.70;;;13.13;;
73632;SDS011;61927;50.080;14.418;2023-12-14T05:13:17;23.45;;;12.45;;
73632;SDS011;61927;50.080;14.418;2023-12-14T05:15:43;24.92;;;13.48;;
73632;SDS011;61927;50.080;14.418;2023-12-14T05:18:09;27.10;;;15.10;;
73632;SDS011;61927;50.080;14.418;2023-12-14T05:20:35;23.38;;;13.30;;
73632;SDS011;61927;50.080;14.418;2023-12-14T05:23:01;22.23;;;12.52;;
73632;SDS011;61927;50.080;14.418;2023-12-14T05:25:27;23.05;;;14.18;;
73632;SDS011;61927;50.080;14.418;2023-12-14T05:27:52;29.50;;;14.80;;
73632;SDS011;61927;50.080;14.418;2023-12-14T05:30:18;28.20;;;15.93;;
73632;SDS011;61927;50.080;14.418;2023-12-14T05:32:44;39.42;;;25.40;;
73632;SDS011;61927;50.080;14.418;2023-12-14T05:35:10;36.22;;;21.05;;
73632;SDS011;61927;50.080;14.418;2023-12-14T05:37:38;41.85;;;18.58;;
73632;SDS011;61927;50.080;14.418;2023-12-14T05:40:04;58.85;;;30.83;;
73632;SDS011;61927;50.080;14.418;2023-12-14T05:42:30;28.35;;;15.13;;
73632;SDS011;61927;50.080;14.418;2023-12-14T05:44:56;44.13;;;24.35;;
73632;SDS011;61927;50.080;14.418;2023-12-14T05:47:21;29.70;;;14.32;;
73632;SDS011;61927;50.080;14.418;2023-12-14T05:49:47;30.42;;;15.88;;
73632;SDS011;61927;50.080;14.418;2023-12-14T05:52:13;25.65;;;15.02;;
73632;SDS011;61927;50.080;14.418;2023-12-14T05:54:39;27.52;;;15.82;;
73632;SDS011;61927;50.080;14.418;2023-12-14T05:57:04;27.15;;;15.00;;
73632;SDS011;61927;50.080;14.418;2023-12-14T05:59:30;27.67;;;15.45;;
73632;SDS011;61927;50.080;14.418;2023-12-14T06:01:57;29.85;;;15.70;;
73632;SDS011;61927;50.080;14.418;2023-12-14T06:04:23;26.00;;;15.15;;
73632;SDS011;61927;50.080;14.418;2023-12-14T06:06:49;27.08;;;15.45;;
73632;SDS011;61927;50.080;14.418;2023-12-14T06:09:15;20.52;;;13.52;;
73632;SDS011;61927;50.080;14.418;2023-12-14T06:11:40;27.60;;;15.70;;
73632;SDS011;61927;50.080;14.418;2023-12-14T06:14:06;33.92;;;18.48;;
73632;SDS011;61927;50.080;14.418;2023-12-14T06:16:31;34.38;;;18.05;;
73632;SDS011;61927;50.080;14.418;2023-12-14T06:18:57;31.15;;;13.85;;
73632;SDS011;61927;50.080;14.418;2023-12-14T06:21:22;21.67;;;13.90;;
73632;SDS011;61927;50.080;14.418;2023-12-14T06:23:51;24.45;;;15.45;;
73632;SDS011;61927;50.080;14.418;2023-12-14T06:26:17;26.17;;;15.43;;
73632;SDS011;61927;50.080;14.418;2023-12-14T06:28:43;23.52;;;13.20;;
73632;SDS011;61927;50.080;14.418;2023-12-14T06:31:12;24.83;;;14.95;;
73632;SDS011;61927;50.080;14.418;2023-12-14T06:33:39;22.63;;;14.20;;
73632;SDS011;61927;50.080;14.418;2023-12-14T06:36:05;27.55;;;13.80;;
73632;SDS011;61927;50.080;14.418;2023-12-14T06:38:32;28.88;;;14.32;;
73632;SDS011;61927;50.080;14.418;2023-12-14T06:40:58;26.10;;;13.80;;
73632;SDS011;61927;50.080;14.418;2023-12-14T06:43:24;35.20;;;15.27;;
73632;SDS011;61927;50.080;14.418;2023-12-14T06:45:49;27.00;;;14.75;;
73632;SDS011;61927;50.080;14.418;2023-12-14T06:48:15;28.02;;;15.38;;
73632;SDS011;61927;50.080;14.418;2023-12-14T06:50:40;30.83;;;15.43;;
73632;SDS011;61927;50.080;14.418;2023-12-14T06:53:06;27.42;;;15.60;;
73632;SDS011;61927;50.080;14.418;2023-12-14T06:55:31;38.83;;;21.30;;
73632;SDS011;61927;50.080;14.418;2023-12-14T06:57:57;30.15;;;16.08;;
73632;SDS011;61927;50.080;14.418;2023-12-14T07:00:23;31.77;;;15.30;;
73632;SDS011;61927;50.080;14.418;2023-12-14T07:02:48;30.52;;;15.63;;
73632;SDS011;61927;50.080;14.418;2023-12-14T07:05:14;26.98;;;15.48;;
73632;SDS011;61927;50.080;14.418;2023-12-14T07:07:40;29.95;;;15.73;;
73632;SDS011;61927;50.080;14.418;2023-12-14T07:10:06;26.58;;;15.45;;
73632;SDS011;61927;50.080;14.418;2023-12-14T07:12:32;32.60;;;16.10;;
73632;SDS011;61927;50.080;14.418;2023-12-14T07:14:57;33.15;;;16.20;;
73632;SDS011;61927;50.080;14.418;2023-12-14T07:17:23;31.90;;;17.45;;
73632;SDS011;61927;50.080;14.418;2023-12-14T07:19:51;31.90;;;16.58;;
73632;SDS011;61927;50.080;14.418;2023-12-14T07:22:16;30.83;;;17.83;;
73632;SDS011;61927;50.080;14.418;2023-12-14T07:24:42;31.92;;;18.08;;
73632;SDS011;61927;50.080;14.418;2023-12-14T07:27:08;59.38;;;19.77;;
73632;SDS011;61927;50.080;14.418;2023-12-14T07:29:33;34.80;;;18.25;;
73632;SDS011;61927;50.080;14.418;2023-12-14T07:31:59;31.90;;;18.92;;
73632;SDS011;61927;50.080;14.418;2023-12-14T07:34:24;32.88;;;17.85;;
73632;SDS011;61927;50.080;14.418;2023-12-14T07:36:53;38.45;;;18.45;;
73632;SDS011;61927;50.080;14.418;2023-12-14T07:39:19;32.33;;;17.42;;
73632;SDS011;61927;50.080;14.418;2023-12-14T07:41:45;35.90;;;17.38;;
73632;SDS011;61927;50.080;14.418;2023-12-14T07:44:10;32.47;;;17.45;;
73632;SDS011;61927;50.080;14.418;2023-12-14T07:46:36;32.78;;;19.40;;
73632;SDS011;61927;50.080;14.418;2023-12-14T07:49:06;36.80;;;17.67;;
73632;SDS011;61927;50.080;14.418;2023-12-14T07:51:32;37.55;;;17.80;;
73632;SDS011;61927;50.080;14.418;2023-12-14T07:53:58;38.45;;;18.17;;
73632;SDS011;61927;50.080;14.418;2023-12-14T07:56:23;65.60;;;19.17;;
73632;SDS011;61927;50.080;14.418;2023-12-14T07:58:52;36.75;;;16.23;;
73632;SDS011;61927;50.080;14.418;2023-12-14T08:01:18;33.88;;;17.23;;
73632;SDS011;61927;50.080;14.418;2023-12-14T08:03:46;32.50;;;17.30;;
73632;SDS011;61927;50.080;14.418;2023-12-14T08:06:12;26.98;;;16.45;;
73632;SDS011;61927;50.080;14.418;2023-12-14T08:08:37;37.10;;;16.77;;
73632;SDS011;61927;50.080;14.418;2023-12-14T08:11:03;44.10;;;18.52;;
73632;SDS011;61927;50.080;14.418;2023-12-14T08:13:30;35.22;;;19.20;;
73632;SDS011;61927;50.080;14.418;2023-12-14T08:15:56;36.22;;;17.98;;
73632;SDS011;61927;50.080;14.418;2023-12-14T08:18:21;27.30;;;16.83;;
73632;SDS011;61927;50.080;14.418;2023-12-14T08:20:47;37.75;;;16.67;;
73632;SDS011;61927;50.080;14.418;2023-12-14T08:23:12;33.97;;;17.15;;
73632;SDS011;61927;50.080;14.418;2023-12-14T08:25:38;30.27;;;16.58;;
73632;SDS011;61927;50.080;14.418;2023-12-14T08:28:04;32.25;;;16.05;;
73632;SDS011;61927;50.080;14.418;2023-12-14T08:30:30;24.15;;;15.70;;
73632;SDS011;61927;50.080;14.418;2023-12-14T08:32:55;30.67;;;16.02;;
73632;SDS011;61927;50.080;14.418;2023-12-14T08:35:21;33.17;;;15.18;;
73632;SDS011;61927;50.080;14.418;2023-12-14T08:37:46;25.65;;;15.55;;
73632;SDS011;61927;50.080;14.418;2023-12-14T08:40:12;25.13;;;14.98;;
73632;SDS011;61927;50.080;14.418;2023-12-14T08:42:38;33.55;;;15.07;;
73632;SDS011;61927;50.080;14.418;2023-12-14T08:45:04;35.85;;;16.02;;
73632;SDS011;61927;50.080;14.418;2023-12-14T08:47:30;31.77;;;14.93;;
73632;SDS011;61927;50.080;14.418;2023-12-14T08:49:55;28.88;;;14.45;;
73632;SDS011;61927;50.080;14.418;2023-12-14T08:52:21;35.15;;;16.02;;
73632;SDS011;61927;50.080;14.418;2023-12-14T08:54:47;37.85;;;16.45;;
73632;SDS011;61927;50.080;14.418;2023-12-14T08:57:12;33.20;;;15.52;;
73632;SDS011;61927;50.080;14.418;2023-12-14T08:59:38;26.63;;;14.30;;
73632;SDS011;61927;50.080;14.418;2023-12-14T09:02:04;29.30;;;15.75;;
73632;SDS011;61927;50.080;14.418;2023-12-14T09:04:30;35.05;;;14.93;;
73632;SDS011;61927;50.080;14.418;2023-12-14T09:06:55;31.20;;;14.85;;
73632;SDS011;61927;50.080;14.418;2023-12-14T09:09:21;25.13;;;15.27;;
73632;SDS011;61927;50.080;14.418;2023-12-14T09:11:46;26.55;;;14.38;;
73632;SDS011;61927;50.080;14.418;2023-12-14T09:14:12;22.77;;;14.05;;
73632;SDS011;61927;50.080;14.418;2023-12-14T09:16:38;24.05;;;14.55;;
73632;SDS011;61927;50.080;14.418;2023-12-14T09:19:03;25.42;;;13.98;;
73632;SDS011;61927;50.080;14.418;2023-12-14T09:21:29;23.33;;;14.52;;
73632;SDS011;61927;50.080;14.418;2023-12-14T09:23:55;24.40;;;14.43;;
73632;SDS011;61927;50.080;14.418;2023-12-14T09:26:21;26.58;;;14.38;;
73632;SDS011;61927;50.080;14.418;2023-12-14T09:28:47;25.45;;;14.82;;
73632;SDS011;61927;50.080;14.418;2023-12-14T09:31:12;30.40;;;15.75;;
73632;SDS011;61927;50.080;14.418;2023-12-14T09:33:38;31.17;;;14.38;;
73632;SDS011;61927;50.080;14.418;2023-12-14T09:36:04;30.02;;;14.90;;
73632;SDS011;61927;50.080;14.418;2023-12-14T09:38:30;35.80;;;16.02;;
73632;SDS011;61927;50.080;14.418;2023-12-14T09:40:56;28.73;;;15.02;;
73632;SDS011;61927;50.080;14.418;2023-12-14T09:43:22;25.35;;;13.90;;
73632;SDS011;61927;50.080;14.418;2023-12-14T09:45:48;40.78;;;15.38;;
73632;SDS011;61927;50.080;14.418;2023-12-14T09:48:15;39.13;;;14.35;;
73632;SDS011;61927;50.080;14.418;2023-12-14T09:50:41;29.70;;;13.07;;
73632;SDS011;61927;50.080;14.418;2023-12-14T09:53:07;26.95;;;13.60;;
73632;SDS011;61927;50.080;14.418;2023-12-14T09:55:33;31.23;;;13.85;;
73632;SDS011;61927;50.080;14.418;2023-12-14T09:57:59;25.70;;;13.30;;
73632;SDS011;61927;50.080;14.418;2023-12-14T10:00:34;29.75;;;13.55;;
73632;SDS011;61927;50.080;14.418;2023-12-14T10:03:20;27.13;;;13.80;;
73632;SDS011;61927;50.080;14.418;2023-12-14T10:05:47;25.17;;;11.50;;
73632;SDS011;61927;50.080;14.418;2023-12-14T10:08:14;21.58;;;10.70;;
73632;SDS011;61927;50.080;14.418;2023-12-14T10:10:42;10.75;;;7.53;;
73632;SDS011;61927;50.080;14.418;2023-12-14T10:13:08;13.45;;;8.60;;
73632;SDS011;61927;50.080;14.418;2023-12-14T10:15:40;14.20;;;7.25;;
73632;SDS011;61927;50.080;14.418;2023-12-14T10:18:07;10.85;;;7.57;;
73632;SDS011;61927;50.080;14.418;2023-12-14T10:20:32;22.60;;;8.65;;
73632;SDS011;61927;50.080;14.418;2023-12-14T10:22:58;17.00;;;8.80;;
73632;SDS011;61927;50.080;14.418;2023-12-14T10:25:24;12.10;;;7.80;;
73632;SDS011;61927;50.080;14.418;2023-12-14T10:27:53;6.85;;;5.60;;
73632;SDS011;61927;50.080;14.418;2023-12-14T10:30:18;8.75;;;6.40;;
73632;SDS011;61927;50.080;14.418;2023-12-14T10:32:47;10.48;;;6.80;;
73632;SDS011;61927;50.080;14.418;2023-12-14T10:35:14;10.60;;;6.75;;
73632;SDS011;61927;50.080;14.418;2023-12-14T10:37:45;13.00;;;7.10;;
73632;SDS011;61927;50.080;14.418;2023-12-14T10:40:13;9.98;;;5.72;;
73632;SDS011;61927;50.080;14.418;2023-12-14T10:42:41;9.15;;;4.60;;
73632;SDS011;61927;50.080;14.418;2023-12-14T10:45:10;5.97;;;4.95;;
73632;SDS011;61927;50.080;14.418;2023-12-14T10:47:39;10.00;;;4.90;;
73632;SDS011;61927;50.080;14.418;2023-12-14T10:50:07;7.05;;;4.10;;
73632;SDS011;61927;50.080;14.418;2023-12-14T10:52:37;9.40;;;3.65;;
73632;SDS011;61927;50.080;14.418;2023-12-14T10:55:07;13.55;;;4.85;;
73632;SDS011;61927;50.080;14.418;2023-12-14T10:57:51;9.07;;;4.00;;
73632;SDS011;61927;50.080;14.418;2023-12-14T11:00:18;8.05;;;4.40;;
73632;SDS011;61927;50.080;14.418;2023-12-14T11:02:47;5.63;;;3.90;;
73632;SDS011;61927;50.080;14.418;2023-12-14T11:05:14;5.70;;;3.97;;
73632;SDS011;61927;50.080;14.418;2023-12-14T11:07:46;6.90;;;4.00;;
73632;SDS011;61927;50.080;14.418;2023-12-14T11:10:13;5.47;;;3.80;;
73632;SDS011;61927;50.080;14.418;2023-12-14T11:12:54;5.50;;;3.70;;
73632;SDS011;61927;50.080;14.418;2023-12-14T11:15:23;9.05;;;4.93;;
73632;SDS011;61927;50.080;14.418;2023-12-14T11:25:56;5.57;;;4.10;;
73632;SDS011;61927;50.080;14.418;2023-12-14T11:28:23;6.05;;;4.20;;
73632;SDS011;61927;50.080;14.418;2023-12-14T11:30:49;4.43;;;3.42;;
73632;SDS011;61927;50.080;14.418;2023-12-14T11:33:15;5.38;;;4.00;;
73632;SDS011;61927;50.080;14.418;2023-12-14T11:35:41;4.13;;;3.15;;
73632;SDS011;61927;50.080;14.418;2023-12-14T11:38:07;4.82;;;4.32;;
73632;SDS011;61927;50.080;14.418;2023-12-14T11:40:38;7.55;;;3.20;;
73632;SDS011;61927;50.080;14.418;2023-12-14T11:43:05;9.07;;;3.28;;
73632;SDS011;61927;50.080;14.418;2023-12-14T11:45:37;3.15;;;2.78;;
73632;SDS011;61927;50.080;14.418;2023-12-14T11:48:08;10.48;;;2.97;;
73632;SDS011;61927;50.080;14.418;2023-12-14T11:50:35;5.18;;;4.20;;
73632;SDS011;61927;50.080;14.418;2023-12-14T11:53:05;6.78;;;2.80;;
73632;SDS011;61927;50.080;14.418;2023-12-14T11:55:31;3.28;;;2.55;;
73632;SDS011;61927;50.080;14.418;2023-12-14T11:57:59;3.55;;;3.20;;
73632;SDS011;61927;50.080;14.418;2023-12-14T12:00:25;3.63;;;2.92;;
73632;SDS011;61927;50.080;14.418;2023-12-14T12:03:06;5.15;;;2.95;;
73632;SDS011;61927;50.080;14.418;2023-12-14T12:05:51;2.47;;;2.28;;
73632;SDS011;61927;50.080;14.418;2023-12-14T12:08:18;3.60;;;2.53;;
73632;SDS011;61927;50.080;14.418;2023-12-14T12:10:45;2.70;;;2.50;;
73632;SDS011;61927;50.080;14.418;2023-12-14T12:13:13;7.95;;;3.08;;
73632;SDS011;61927;50.080;14.418;2023-12-14T12:15:40;2.28;;;2.17;;
73632;SDS011;61927;50.080;14.418;2023-12-14T12:18:07;2.50;;;2.20;;
73632;SDS011;61927;50.080;14.418;2023-12-14T12:20:37;2.65;;;2.40;;
73632;SDS011;61927;50.080;14.418;2023-12-14T12:23:03;3.25;;;2.53;;
73632;SDS011;61927;50.080;14.418;2023-12-14T12:25:29;3.67;;;2.90;;
73632;SDS011;61927;50.080;14.418;2023-12-14T12:27:57;3.60;;;2.78;;
73632;SDS011;61927;50.080;14.418;2023-12-14T12:30:23;2.70;;;2.50;;
73632;SDS011;61927;50.080;14.418;2023-12-14T12:32:49;2.38;;;2.17;;
73632;SDS011;61927;50.080;14.418;2023-12-14T12:35:22;2.80;;;2.60;;
73632;SDS011;61927;50.080;14.418;2023-12-14T12:37:49;6.07;;;2.20;;
73632;SDS011;61927;50.080;14.418;2023-12-14T12:40:19;3.08;;;2.35;;
73632;SDS011;61927;50.080;14.418;2023-12-14T12:42:49;4.45;;;2.55;;
73632;SDS011;61927;50.080;14.418;2023-12-14T12:45:15;3.40;;;2.50;;
73632;SDS011;61927;50.080;14.418;2023-12-14T12:47:43;4.97;;;2.13;;
73632;SDS011;61927;50.080;14.418;2023-12-14T12:50:09;5.63;;;2.70;;
73632;SDS011;61927;50.080;14.418;2023-12-14T12:52:35;2.50;;;2.30;;
73632;SDS011;61927;50.080;14.418;2023-12-14T12:55:00;3.50;;;2.67;;
73632;SDS011;61927;50.080;14.418;2023-12-14T12:57:27;9.25;;;3.05;;
73632;SDS011;61927;50.080;14.418;2023-12-14T12:59:52;4.00;;;2.72;;
73632;SDS011;61927;50.080;14.418;2023-12-14T13:02:18;5.68;;;3.55;;
73632;SDS011;61927;50.080;14.418;2023-12-14T13:04:44;6.15;;;3.20;;
73632;SDS011;61927;50.080;14.418;2023-12-14T13:07:10;4.85;;;2.55;;
73632;SDS011;61927;50.080;14.418;2023-12-14T13:09:37;9.25;;;4.20;;
73632;SDS011;61927;50.080;14.418;2023-12-14T13:12:04;11.32;;;5.93;;
73632;SDS011;61927;50.080;14.418;2023-12-14T13:14:30;7.25;;;4.00;;
73632;SDS011;61927;50.080;14.418;2023-12-14T13:16:56;3.45;;;2.42;;
73632;SDS011;61927;50.080;14.418;2023-12-14T13:19:24;11.40;;;2.78;;
73632;SDS011;61927;50.080;14.418;2023-12-14T13:21:51;4.65;;;3.03;;
73632;SDS011;61927;50.080;14.418;2023-12-14T13:24:17;3.88;;;3.10;;
73632;SDS011;61927;50.080;14.418;2023-12-14T13:26:43;7.40;;;2.13;;
73632;SDS011;61927;50.080;14.418;2023-12-14T13:29:09;2.65;;;1.92;;
73632;SDS011;61927;50.080;14.418;2023-12-14T13:31:35;14.13;;;2.38;;
73632;SDS011;61927;50.080;14.418;2023-12-14T13:34:01;2.22;;;2.03;;
73632;SDS011;61927;50.080;14.418;2023-12-14T13:36:27;6.82;;;2.67;;
73632;SDS011;61927;50.080;14.418;2023-12-14T13:38:52;4.43;;;2.72;;
73632;SDS011;61927;50.080;14.418;2023-12-14T13:41:18;2.70;;;2.10;;
73632;SDS011;61927;50.080;14.418;2023-12-14T13:43:44;6.68;;;2.38;;
73632;SDS011;61927;50.080;14.418;2023-12-14T13:46:11;7.40;;;2.17;;
73632;SDS011;61927;50.080;14.418;2023-12-14T13:48:37;4.72;;;2.80;;
73632;SDS011;61927;50.080;14.418;2023-12-14T13:51:02;4.50;;;2.08;;
73632;SDS011;61927;50.080;14.418;2023-12-14T13:53:28;4.00;;;2.85;;
73632;SDS011;61927;50.080;14.418;2023-12-14T13:55:54;5.55;;;3.45;;
73632;SDS011;61927;50.080;14.418;2023-12-14T13:58:19;6.88;;;3.00;;
73632;SDS011;61927;50.080;14.418;2023-12-14T14:00:45;3.88;;;3.20;;
73632;SDS011;61927;50.080;14.418;2023-12-14T14:03:11;4.45;;;2.95;;
73632;SDS011;61927;50.080;14.418;2023-12-14T14:05:38;3.10;;;2.85;;
73632;SDS011;61927;50.080;14.418;2023-12-14T14:08:04;7.88;;;3.30;;
73632;SDS011;61927;50.080;14.418;2023-12-14T14:10:30;3.78;;;2.90;;
73632;SDS011;61927;50.080;14.418;2023-12-14T14:12:55;8.00;;;2.45;;
73632;SDS011;61927;50.080;14.418;2023-12-14T14:15:21;3.42;;;2.85;;
73632;SDS011;61927;50.080;14.418;2023-12-14T14:17:47;7.03;;;2.63;;
73632;SDS011;61927;50.080;14.418;2023-12-14T14:20:17;3.03;;;2.65;;
73632;SDS011;61927;50.080;14.418;2023-12-14T14:22:43;2.70;;;2.50;;
73632;SDS011;61927;50.080;14.418;2023-12-14T14:25:09;5.25;;;2.67;;